sensor_id;sensor_type;location;lat;lon;timestamp;pressure;altitude;pressure_sealevel;temperature;humidity
4469;BME280;2247;42.666;23.292;2024-03-23T00:54:29;94403.28;;;11.70;42.73
4469;BME280;2247;42.666;23.292;2024-03-23T00:56:56;94404.34;;;11.69;42.57
4469;BME280;2247;42.666;23.292;2024-03-23T00:59:22;94402.25;;;11.71;42.59
4469;BME280;2247;42.666;23.292;2024-03-23T01:01:52;94397.75;;;11.71;42.32
4469;BME280;2247;42.666;23.292;2024-03-23T01:04:18;94390.41;;;11.68;42.39
4469;BME280;2247;42.666;23.292;2024-03-23T01:06:45;94389.09;;;11.66;42.36
4469;BME280;2247;42.666;23.292;2024-03-23T01:09:11;94393.59;;;11.65;42.19
4469;BME280;2247;42.666;23.292;2024-03-23T01:11:40;94390.19;;;11.60;42.51
4469;BME280;2247;42.666;23.292;2024-03-23T01:14:06;94390.75;;;11.57;42.55
4469;BME280;2247;42.666;23.292;2024-03-23T01:16:33;94387.91;;;11.48;42.31
4469;BME280;2247;42.666;23.292;2024-03-23T01:18:59;94387.09;;;11.53;42.27
4469;BME280;2247;42.666;23.292;2024-03-23T01:21:26;94388.69;;;11.49;43.00
4469;BME280;2247;42.666;23.292;2024-03-23T01:23:52;94378.66;;;11.51;42.49
4469;BME280;2247;42.666;23.292;2024-03-23T01:26:19;94382.09;;;11.51;42.59
4469;BME280;2247;42.666;23.292;2024-03-23T01:28:46;94387.34;;;11.51;42.18
4469;BME280;2247;42.666;23.292;2024-03-23T01:31:13;94380.50;;;11.50;42.21
4469;BME280;2247;42.666;23.292;2024-03-23T01:33:39;94383.97;;;11.45;42.10
4469;BME280;2247;42.666;23.292;2024-03-23T01:36:06;94385.56;;;11.41;42.24
4469;BME280;2247;42.666;23.292;2024-03-23T01:38:32;94385.34;;;11.38;42.63
4469;BME280;2247;42.666;23.292;2024-03-23T01:40:59;94385.88;;;11.35;42.71
4469;BME280;2247;42.666;23.292;2024-03-23T01:43:25;94382.50;;;11.29;42.86
4469;BME280;2247;42.666;23.292;2024-03-23T01:45:53;94385.66;;;11.31;42.64
4469;BME280;2247;42.666;23.292;2024-03-23T01:48:19;94385.94;;;11.30;42.65
4469;BME280;2247;42.666;23.292;2024-03-23T01:50:47;94370.97;;;11.20;42.90
4469;BME280;2247;42.666;23.292;2024-03-23T01:53:14;94379.88;;;11.29;43.04
4469;BME280;2247;42.666;23.292;2024-03-23T01:55:43;94361.25;;;11.16;42.91
4469;BME280;2247;42.666;23.292;2024-03-23T01:58:08;94384.63;;;11.27;42.73
4469;BME280;2247;42.666;23.292;2024-03-23T02:00:36;94385.16;;;11.29;42.84
4469;BME280;2247;42.666;23.292;2024-03-23T02:03:21;94392.84;;;11.26;42.67
4469;BME280;2247;42.666;23.292;2024-03-23T02:05:49;94381.22;;;11.27;42.68
4469;BME280;2247;42.666;23.292;2024-03-23T02:08:16;94388.63;;;11.25;42.44
4469;BME280;2247;42.666;23.292;2024-03-23T02:10:43;94384.66;;;11.22;42.73
4469;BME280;2247;42.666;23.292;2024-03-23T02:13:09;94388.09;;;11.23;42.78
4469;BME280;2247;42.666;23.292;2024-03-23T02:15:36;94389.41;;;11.20;42.77
4469;BME280;2247;42.666;23.292;2024-03-23T02:18:04;94391.81;;;11.17;42.67
4469;BME280;2247;42.666;23.292;2024-03-23T02:20:31;94386.88;;;11.10;43.04
4469;BME280;2247;42.666;23.292;2024-03-23T02:22:59;94389.25;;;11.06;43.08
4469;BME280;2247;42.666;23.292;2024-03-23T02:25:26;94391.13;;;11.06;43.16
4469;BME280;2247;42.666;23.292;2024-03-23T02:27:52;94390.84;;;11.02;43.01
4469;BME280;2247;42.666;23.292;2024-03-23T02:30:19;94395.13;;;10.98;42.68
4469;BME280;2247;42.666;23.292;2024-03-23T02:32:45;94402.81;;;10.90;42.77
4469;BME280;2247;42.666;23.292;2024-03-23T02:35:12;94402.53;;;10.86;43.27
4469;BME280;2247;42.666;23.292;2024-03-23T02:37:38;94399.66;;;10.83;43.36
4469;BME280;2247;42.666;23.292;2024-03-23T02:40:07;94396.78;;;10.79;43.24
4469;BME280;2247;42.666;23.292;2024-03-23T02:42:33;94396.53;;;10.76;43.52
4469;BME280;2247;42.666;23.292;2024-03-23T02:45:00;94390.47;;;10.75;43.87
4469;BME280;2247;42.666;23.292;2024-03-23T02:47:30;94390.47;;;10.75;43.84
4469;BME280;2247;42.666;23.292;2024-03-23T02:49:56;94392.06;;;10.76;44.05
4469;BME280;2247;42.666;23.292;2024-03-23T02:52:23;94388.88;;;10.84;44.11
4469;BME280;2247;42.666;23.292;2024-03-23T02:54:48;94383.81;;;10.88;43.90
4469;BME280;2247;42.666;23.292;2024-03-23T02:57:17;94381.72;;;10.90;43.98
4469;BME280;2247;42.666;23.292;2024-03-23T02:59:43;94385.41;;;10.89;44.27
4469;BME280;2247;42.666;23.292;2024-03-23T03:02:10;94386.72;;;10.86;44.14
4469;BME280;2247;42.666;23.292;2024-03-23T03:04:36;94388.34;;;10.82;44.14
4469;BME280;2247;42.666;23.292;2024-03-23T03:07:03;94388.13;;;10.74;44.08
4469;BME280;2247;42.666;23.292;2024-03-23T03:09:29;94384.75;;;10.63;44.19
4469;BME280;2247;42.666;23.292;2024-03-23T03:11:57;94386.06;;;10.60;44.25
4469;BME280;2247;42.666;23.292;2024-03-23T03:14:24;94380.81;;;10.60;44.47
4469;BME280;2247;42.666;23.292;2024-03-23T03:16:51;94388.69;;;10.60;44.60
4469;BME280;2247;42.666;23.292;2024-03-23T03:19:17;94388.97;;;10.59;44.31
4469;BME280;2247;42.666;23.292;2024-03-23T03:21:44;94388.72;;;10.55;44.65
4469;BME280;2247;42.666;23.292;2024-03-23T03:24:10;94387.38;;;10.58;44.04
4469;BME280;2247;42.666;23.292;2024-03-23T03:26:37;94392.16;;;10.56;44.29
4469;BME280;2247;42.666;23.292;2024-03-23T03:29:03;94387.69;;;10.51;44.23
4469;BME280;2247;42.666;23.292;2024-03-23T03:31:31;94392.19;;;10.46;44.30
4469;BME280;2247;42.666;23.292;2024-03-23T03:33:57;94390.88;;;10.48;44.28
4469;BME280;2247;42.666;23.292;2024-03-23T03:36:24;94392.44;;;10.49;44.55
4469;BME280;2247;42.666;23.292;2024-03-23T03:38:50;94391.66;;;10.49;44.61
4469;BME280;2247;42.666;23.292;2024-03-23T03:41:18;94390.59;;;10.45;44.64
4469;BME280;2247;42.666;23.292;2024-03-23T03:43:43;94391.41;;;10.40;44.84
4469;BME280;2247;42.666;23.292;2024-03-23T03:46:10;94394.09;;;10.35;44.68
4469;BME280;2247;42.666;23.292;2024-03-23T03:48:38;94393.81;;;10.37;44.83
4469;BME280;2247;42.666;23.292;2024-03-23T03:51:05;94395.91;;;10.35;44.96
4469;BME280;2247;42.666;23.292;2024-03-23T03:53:31;94385.13;;;10.31;44.96
4469;BME280;2247;42.666;23.292;2024-03-23T03:56:00;94394.34;;;10.34;45.00
4469;BME280;2247;42.666;23.292;2024-03-23T03:58:26;94398.81;;;10.33;45.09
4469;BME280;2247;42.666;23.292;2024-03-23T04:00:53;94381.47;;;10.22;44.98
4469;BME280;2247;42.666;23.292;2024-03-23T04:03:19;94393.31;;;10.30;45.21
4469;BME280;2247;42.666;23.292;2024-03-23T04:05:51;94399.63;;;10.29;45.12
4469;BME280;2247;42.666;23.292;2024-03-23T04:08:17;94405.94;;;10.27;44.93
4469;BME280;2247;42.666;23.292;2024-03-23T04:10:44;94396.72;;;10.25;45.03
4469;BME280;2247;42.666;23.292;2024-03-23T04:13:11;94403.06;;;10.24;45.23
4469;BME280;2247;42.666;23.292;2024-03-23T04:15:38;94403.84;;;10.24;45.20
4469;BME280;2247;42.666;23.292;2024-03-23T04:18:04;94407.03;;;10.21;44.85
4469;BME280;2247;42.666;23.292;2024-03-23T04:20:31;94405.19;;;10.17;45.04
4469;BME280;2247;42.666;23.292;2024-03-23T04:22:59;94405.97;;;10.17;45.25
4469;BME280;2247;42.666;23.292;2024-03-23T04:25:26;94410.72;;;10.20;45.27
4469;BME280;2247;42.666;23.292;2024-03-23T04:27:52;94409.91;;;10.15;44.95
4469;BME280;2247;42.666;23.292;2024-03-23T04:30:18;94404.38;;;10.16;45.06
4469;BME280;2247;42.666;23.292;2024-03-23T04:32:45;94411.50;;;10.21;45.00
4469;BME280;2247;42.666;23.292;2024-03-23T04:35:13;94412.03;;;10.23;44.96
4469;BME280;2247;42.666;23.292;2024-03-23T04:37:39;94410.44;;;10.27;44.90
4469;BME280;2247;42.666;23.292;2024-03-23T04:40:09;94413.81;;;10.38;45.07
4469;BME280;2247;42.666;23.292;2024-03-23T04:42:36;94408.53;;;10.43;45.09
4469;BME280;2247;42.666;23.292;2024-03-23T04:45:04;94372.25;;;10.30;44.67
4469;BME280;2247;42.666;23.292;2024-03-23T04:47:32;94408.19;;;10.59;44.88
4469;BME280;2247;42.666;23.292;2024-03-23T04:50:01;94413.19;;;10.66;44.32
4469;BME280;2247;42.666;23.292;2024-03-23T04:52:28;94418.66;;;10.80;44.35
4469;BME280;2247;42.666;23.292;2024-03-23T04:54:55;94415.47;;;10.88;44.29
4469;BME280;2247;42.666;23.292;2024-03-23T04:57:23;94416.13;;;11.09;43.97
4469;BME280;2247;42.666;23.292;2024-03-23T04:59:49;94413.09;;;11.30;43.63
4469;BME280;2247;42.666;23.292;2024-03-23T05:02:16;94421.72;;;11.46;42.68
4469;BME280;2247;42.666;23.292;2024-03-23T05:04:42;94418.91;;;11.66;42.17
4469;BME280;2247;42.666;23.292;2024-03-23T05:07:09;94411.06;;;11.90;42.17
4469;BME280;2247;42.666;23.292;2024-03-23T05:09:35;94415.16;;;12.06;42.37
4469;BME280;2247;42.666;23.292;2024-03-23T05:12:02;94414.91;;;12.32;42.88
4469;BME280;2247;42.666;23.292;2024-03-23T05:14:29;94406.38;;;12.63;42.98
4469;BME280;2247;42.666;23.292;2024-03-23T05:16:56;94413.28;;;13.02;41.95
4469;BME280;2247;42.666;23.292;2024-03-23T05:19:22;94408.59;;;13.36;40.96
4469;BME280;2247;42.666;23.292;2024-03-23T05:21:49;94407.06;;;13.68;40.34
4469;BME280;2247;42.666;23.292;2024-03-23T05:24:15;94400.97;;;14.00;39.58
4469;BME280;2247;42.666;23.292;2024-03-23T05:26:42;94407.31;;;14.31;38.58
4469;BME280;2247;42.666;23.292;2024-03-23T05:29:08;94399.00;;;14.51;37.75
4469;BME280;2247;42.666;23.292;2024-03-23T05:31:40;94386.19;;;14.81;37.39
4469;BME280;2247;42.666;23.292;2024-03-23T05:34:07;94394.72;;;15.05;36.76
4469;BME280;2247;42.666;23.292;2024-03-23T05:36:34;94400.25;;;15.31;36.43
4469;BME280;2247;42.666;23.292;2024-03-23T05:39:01;94389.88;;;15.57;35.60
4469;BME280;2247;42.666;23.292;2024-03-23T05:41:29;94398.88;;;15.92;34.83
4469;BME280;2247;42.666;23.292;2024-03-23T05:43:55;94394.25;;;16.06;34.40
4469;BME280;2247;42.666;23.292;2024-03-23T05:46:22;94399.50;;;16.20;34.41
4469;BME280;2247;42.666;23.292;2024-03-23T05:48:51;94403.03;;;16.37;34.04
4469;BME280;2247;42.666;23.292;2024-03-23T05:51:23;94404.09;;;16.67;33.65
4469;BME280;2247;42.666;23.292;2024-03-23T05:53:49;94396.66;;;16.78;33.87
4469;BME280;2247;42.666;23.292;2024-03-23T05:56:19;94398.28;;;17.05;33.43
4469;BME280;2247;42.666;23.292;2024-03-23T05:58:46;94403.16;;;17.20;32.84
4469;BME280;2247;42.666;23.292;2024-03-23T06:01:14;94403.97;;;17.46;32.78
4469;BME280;2247;42.666;23.292;2024-03-23T06:03:40;94401.44;;;17.58;31.76
4469;BME280;2247;42.666;23.292;2024-03-23T06:06:08;94394.28;;;17.67;31.73
4469;BME280;2247;42.666;23.292;2024-03-23T06:08:37;94395.19;;;17.80;32.03
4469;BME280;2247;42.666;23.292;2024-03-23T06:11:04;94405.50;;;18.16;31.83
4469;BME280;2247;42.666;23.292;2024-03-23T06:13:31;94388.94;;;18.40;30.92
4469;BME280;2247;42.666;23.292;2024-03-23T06:15:59;94391.25;;;18.50;30.91
4469;BME280;2247;42.666;23.292;2024-03-23T06:18:25;94392.66;;;18.65;30.21
4469;BME280;2247;42.666;23.292;2024-03-23T06:20:52;94384.22;;;18.83;29.87
4469;BME280;2247;42.666;23.292;2024-03-23T06:23:20;94380.44;;;19.14;29.72
4469;BME280;2247;42.666;23.292;2024-03-23T06:25:47;94377.84;;;19.26;29.33
4469;BME280;2247;42.666;23.292;2024-03-23T06:28:13;94352.47;;;19.11;28.80
4469;BME280;2247;42.666;23.292;2024-03-23T06:30:40;94385.97;;;19.09;28.96
4469;BME280;2247;42.666;23.292;2024-03-23T06:33:06;94385.75;;;18.93;29.16
4469;BME280;2247;42.666;23.292;2024-03-23T06:35:33;94383.69;;;18.99;29.10
4469;BME280;2247;42.666;23.292;2024-03-23T06:37:59;94387.50;;;18.89;29.21
4469;BME280;2247;42.666;23.292;2024-03-23T06:40:27;94388.47;;;18.84;29.72
4469;BME280;2247;42.666;23.292;2024-03-23T06:42:53;94385.84;;;18.76;29.90
4469;BME280;2247;42.666;23.292;2024-03-23T06:45:20;94384.09;;;18.80;29.89
4469;BME280;2247;42.666;23.292;2024-03-23T06:47:48;94381.72;;;18.87;29.13
4469;BME280;2247;42.666;23.292;2024-03-23T06:50:16;94385.72;;;18.72;29.63
4469;BME280;2247;42.666;23.292;2024-03-23T06:52:42;94389.78;;;18.70;32.01
4469;BME280;2247;42.666;23.292;2024-03-23T06:55:09;94389.31;;;18.68;32.52
4469;BME280;2247;42.666;23.292;2024-03-23T06:57:37;94387.78;;;18.67;30.36
4469;BME280;2247;42.666;23.292;2024-03-23T07:00:05;94366.81;;;18.39;30.06
4469;BME280;2247;42.666;23.292;2024-03-23T07:02:35;94384.22;;;18.45;30.05
4469;BME280;2247;42.666;23.292;2024-03-23T07:05:02;94381.91;;;18.35;30.27
4469;BME280;2247;42.666;23.292;2024-03-23T07:07:28;94385.22;;;18.32;30.75
4469;BME280;2247;42.666;23.292;2024-03-23T07:09:56;94378.25;;;18.40;31.65
4469;BME280;2247;42.666;23.292;2024-03-23T07:12:22;94373.84;;;18.53;31.71
4469;BME280;2247;42.666;23.292;2024-03-23T07:14:51;94370.53;;;18.56;31.24
4469;BME280;2247;42.666;23.292;2024-03-23T07:17:17;94373.69;;;18.58;30.23
4469;BME280;2247;42.666;23.292;2024-03-23T07:19:44;94350.78;;;18.39;30.76
4469;BME280;2247;42.666;23.292;2024-03-23T07:22:10;94373.25;;;18.38;30.28
4469;BME280;2247;42.666;23.292;2024-03-23T07:24:37;94368.09;;;18.33;31.31
4469;BME280;2247;42.666;23.292;2024-03-23T07:27:04;94359.63;;;18.31;30.73
4469;BME280;2247;42.666;23.292;2024-03-23T07:29:35;94359.13;;;18.38;30.96
4469;BME280;2247;42.666;23.292;2024-03-23T07:32:03;94361.16;;;18.41;30.64
4469;BME280;2247;42.666;23.292;2024-03-23T07:34:30;94362.47;;;18.26;30.56
4469;BME280;2247;42.666;23.292;2024-03-23T07:36:55;94333.06;;;17.97;30.63
4469;BME280;2247;42.666;23.292;2024-03-23T07:39:22;94358.78;;;18.01;31.32
4469;BME280;2247;42.666;23.292;2024-03-23T07:41:48;94350.59;;;17.98;32.61
4469;BME280;2247;42.666;23.292;2024-03-23T07:44:15;94355.94;;;17.98;33.18
4469;BME280;2247;42.666;23.292;2024-03-23T07:46:41;94357.22;;;17.92;32.27
4469;BME280;2247;42.666;23.292;2024-03-23T07:49:09;94354.72;;;17.78;31.61
4469;BME280;2247;42.666;23.292;2024-03-23T07:51:35;94351.28;;;17.60;31.31
4469;BME280;2247;42.666;23.292;2024-03-23T07:54:04;94350.06;;;17.49;33.13
4469;BME280;2247;42.666;23.292;2024-03-23T07:56:30;94345.00;;;17.56;31.95
4469;BME280;2247;42.666;23.292;2024-03-23T07:58:57;94354.13;;;17.47;31.14
4469;BME280;2247;42.666;23.292;2024-03-23T08:01:23;94342.06;;;17.32;31.18
4469;BME280;2247;42.666;23.292;2024-03-23T08:03:50;94340.00;;;17.12;31.40
4469;BME280;2247;42.666;23.292;2024-03-23T08:06:19;94348.28;;;17.02;31.91
4469;BME280;2247;42.666;23.292;2024-03-23T08:08:48;94338.91;;;17.04;31.87
4469;BME280;2247;42.666;23.292;2024-03-23T08:11:14;94321.34;;;16.86;31.55
4469;BME280;2247;42.666;23.292;2024-03-23T08:13:42;94343.44;;;17.04;31.83
4469;BME280;2247;42.666;23.292;2024-03-23T08:16:10;94346.59;;;17.06;34.60
4469;BME280;2247;42.666;23.292;2024-03-23T08:18:37;94319.81;;;16.93;35.22
4469;BME280;2247;42.666;23.292;2024-03-23T08:21:04;94329.50;;;17.15;32.69
4469;BME280;2247;42.666;23.292;2024-03-23T08:23:34;94332.66;;;17.17;33.94
4469;BME280;2247;42.666;23.292;2024-03-23T08:26:03;94342.38;;;17.13;35.24
4469;BME280;2247;42.666;23.292;2024-03-23T08:28:30;94337.03;;;17.13;35.44
4469;BME280;2247;42.666;23.292;2024-03-23T08:30:56;94329.84;;;17.14;32.62
4469;BME280;2247;42.666;23.292;2024-03-23T08:33:23;94326.81;;;16.89;35.30
4469;BME280;2247;42.666;23.292;2024-03-23T08:35:54;94317.44;;;16.83;34.99
4469;BME280;2247;42.666;23.292;2024-03-23T08:38:21;94327.78;;;16.93;34.43
4469;BME280;2247;42.666;23.292;2024-03-23T08:40:56;94322.75;;;16.83;34.65
4469;BME280;2247;42.666;23.292;2024-03-23T08:43:23;94315.25;;;16.85;35.21
4469;BME280;2247;42.666;23.292;2024-03-23T08:45:49;94307.41;;;16.80;34.24
4469;BME280;2247;42.666;23.292;2024-03-23T08:48:16;94313.84;;;16.79;33.77
4469;BME280;2247;42.666;23.292;2024-03-23T08:50:42;94310.22;;;16.75;36.58
4469;BME280;2247;42.666;23.292;2024-03-23T08:53:09;94304.88;;;16.75;33.93
4469;BME280;2247;42.666;23.292;2024-03-23T08:55:35;94300.66;;;16.74;33.43
4469;BME280;2247;42.666;23.292;2024-03-23T08:58:03;94292.34;;;16.67;35.97
4469;BME280;2247;42.666;23.292;2024-03-23T09:00:29;94296.91;;;16.75;34.95
4469;BME280;2247;42.666;23.292;2024-03-23T09:02:57;94297.38;;;16.77;34.57
4469;BME280;2247;42.666;23.292;2024-03-23T09:05:23;94282.97;;;16.70;37.68
4469;BME280;2247;42.666;23.292;2024-03-23T09:07:50;94287.38;;;16.83;35.26
4469;BME280;2247;42.666;23.292;2024-03-23T09:10:16;94287.66;;;16.81;34.05
4469;BME280;2247;42.666;23.292;2024-03-23T09:12:43;94284.41;;;16.84;36.72
4469;BME280;2247;42.666;23.292;2024-03-23T09:15:11;94279.38;;;16.74;35.00
4469;BME280;2247;42.666;23.292;2024-03-23T09:17:38;94275.63;;;16.84;35.34
4469;BME280;2247;42.666;23.292;2024-03-23T09:20:05;94275.47;;;16.80;35.49
4469;BME280;2247;42.666;23.292;2024-03-23T09:22:32;94264.50;;;16.82;35.17
4469;BME280;2247;42.666;23.292;2024-03-23T09:24:58;94273.91;;;16.88;34.01
4469;BME280;2247;42.666;23.292;2024-03-23T09:27:25;94262.03;;;16.85;35.02
4469;BME280;2247;42.666;23.292;2024-03-23T09:29:51;94256.22;;;16.83;36.58
4469;BME280;2247;42.666;23.292;2024-03-23T09:32:19;94251.69;;;16.92;37.93
4469;BME280;2247;42.666;23.292;2024-03-23T09:34:45;94255.09;;;17.02;33.65
4469;BME280;2247;42.666;23.292;2024-03-23T09:37:12;94247.75;;;16.90;33.58
4469;BME280;2247;42.666;23.292;2024-03-23T09:39:38;94240.41;;;16.87;33.87
4469;BME280;2247;42.666;23.292;2024-03-23T09:42:06;94238.06;;;16.77;35.34
4469;BME280;2247;42.666;23.292;2024-03-23T09:44:32;94236.97;;;16.86;33.72
4469;BME280;2247;42.666;23.292;2024-03-23T09:46:59;94228.81;;;16.91;34.69
4469;BME280;2247;42.666;23.292;2024-03-23T09:49:27;94232.41;;;16.96;34.57
4469;BME280;2247;42.666;23.292;2024-03-23T09:51:54;94223.50;;;17.00;34.60
4469;BME280;2247;42.666;23.292;2024-03-23T09:54:20;94217.69;;;17.07;34.18
4469;BME280;2247;42.666;23.292;2024-03-23T09:56:48;94213.16;;;17.07;35.40
4469;BME280;2247;42.666;23.292;2024-03-23T09:59:14;94211.72;;;17.10;33.84
4469;BME280;2247;42.666;23.292;2024-03-23T10:01:41;94206.25;;;17.15;33.66
4469;BME280;2247;42.666;23.292;2024-03-23T10:04:07;94207.19;;;17.19;32.76
4469;BME280;2247;42.666;23.292;2024-03-23T10:06:37;94199.81;;;17.16;35.55
4469;BME280;2247;42.666;23.292;2024-03-23T10:09:16;94200.44;;;17.21;34.75
4469;BME280;2247;42.666;23.292;2024-03-23T10:11:43;94188.66;;;17.31;31.68
4469;BME280;2247;42.666;23.292;2024-03-23T10:14:28;94187.25;;;17.25;31.07
4469;BME280;2247;42.666;23.292;2024-03-23T10:17:11;94183.53;;;17.09;33.13
4469;BME280;2247;42.666;23.292;2024-03-23T10:19:39;94182.13;;;17.03;32.60
4469;BME280;2247;42.666;23.292;2024-03-23T10:22:09;94171.47;;;17.03;32.33
4469;BME280;2247;42.666;23.292;2024-03-23T10:24:35;94178.19;;;17.09;31.23
4469;BME280;2247;42.666;23.292;2024-03-23T10:27:02;94167.56;;;17.09;31.30
4469;BME280;2247;42.666;23.292;2024-03-23T10:29:28;94168.97;;;17.15;34.78
4469;BME280;2247;42.666;23.292;2024-03-23T10:32:07;94154.69;;;17.19;35.77
4469;BME280;2247;42.666;23.292;2024-03-23T10:34:33;94158.25;;;17.32;32.54
4469;BME280;2247;42.666;23.292;2024-03-23T10:37:02;94155.28;;;17.33;31.75
4469;BME280;2247;42.666;23.292;2024-03-23T10:39:31;94149.66;;;17.26;31.79
4469;BME280;2247;42.666;23.292;2024-03-23T10:42:01;94154.53;;;17.16;31.92
4469;BME280;2247;42.666;23.292;2024-03-23T10:44:28;94150.16;;;17.20;33.64
4469;BME280;2247;42.666;23.292;2024-03-23T10:46:57;94137.28;;;17.22;32.58
4469;BME280;2247;42.666;23.292;2024-03-23T10:49:26;94128.53;;;17.21;34.26
4469;BME280;2247;42.666;23.292;2024-03-23T10:51:55;94117.06;;;17.29;31.32
4469;BME280;2247;42.666;23.292;2024-03-23T10:54:22;94116.31;;;17.20;30.41
4469;BME280;2247;42.666;23.292;2024-03-23T10:56:56;94114.00;;;17.10;31.20
4469;BME280;2247;42.666;23.292;2024-03-23T10:59:24;94106.31;;;17.09;34.52
4469;BME280;2247;42.666;23.292;2024-03-23T11:01:55;94096.59;;;17.13;32.65
4469;BME280;2247;42.666;23.292;2024-03-23T11:04:31;94088.91;;;17.20;34.45
4469;BME280;2247;42.666;23.292;2024-03-23T11:06:58;94086.66;;;17.30;31.96
4469;BME280;2247;42.666;23.292;2024-03-23T11:09:49;94080.72;;;17.25;31.97
4469;BME280;2247;42.666;23.292;2024-03-23T11:12:27;94078.81;;;17.34;32.40
4469;BME280;2247;42.666;23.292;2024-03-23T11:14:54;94061.75;;;17.35;31.17
4469;BME280;2247;42.666;23.292;2024-03-23T11:17:22;94016.22;;;17.19;31.95
4469;BME280;2247;42.666;23.292;2024-03-23T11:19:58;94047.84;;;17.50;30.37
4469;BME280;2247;42.666;23.292;2024-03-23T11:22:42;94057.09;;;17.53;30.32
4469;BME280;2247;42.666;23.292;2024-03-23T11:25:15;94051.78;;;17.53;30.66
4469;BME280;2247;42.666;23.292;2024-03-23T11:27:48;94040.06;;;17.45;30.54
4469;BME280;2247;42.666;23.292;2024-03-23T11:30:16;94043.97;;;17.48;30.87
4469;BME280;2247;42.666;23.292;2024-03-23T11:32:44;94007.53;;;17.31;30.50
4469;BME280;2247;42.666;23.292;2024-03-23T11:35:10;94034.66;;;17.62;31.04
4469;BME280;2247;42.666;23.292;2024-03-23T11:37:37;94028.56;;;17.62;30.61
4469;BME280;2247;42.666;23.292;2024-03-23T11:40:19;94025.25;;;17.56;31.40
4469;BME280;2247;42.666;23.292;2024-03-23T11:42:55;94025.22;;;17.65;30.94
4469;BME280;2247;42.666;23.292;2024-03-23T11:45:21;94006.78;;;17.51;31.08
4469;BME280;2247;42.666;23.292;2024-03-23T11:47:48;94013.84;;;17.56;30.76
4469;BME280;2247;42.666;23.292;2024-03-23T11:50:19;93994.84;;;17.57;31.02
4469;BME280;2247;42.666;23.292;2024-03-23T11:52:47;93993.19;;;17.74;31.32
4469;BME280;2247;42.666;23.292;2024-03-23T11:55:13;93997.88;;;17.77;30.62
4469;BME280;2247;42.666;23.292;2024-03-23T11:57:40;93986.19;;;17.69;30.71
4469;BME280;2247;42.666;23.292;2024-03-23T12:00:22;93981.75;;;17.73;31.57
4469;BME280;2247;42.666;23.292;2024-03-23T12:02:50;93973.69;;;17.82;30.97
4469;BME280;2247;42.666;23.292;2024-03-23T12:05:16;93957.53;;;17.57;30.47
4469;BME280;2247;42.666;23.292;2024-03-23T12:07:43;93976.72;;;17.92;29.74
4469;BME280;2247;42.666;23.292;2024-03-23T12:10:09;93970.44;;;17.97;30.14
4469;BME280;2247;42.666;23.292;2024-03-23T12:12:37;93959.34;;;18.07;28.98
4469;BME280;2247;42.666;23.292;2024-03-23T12:15:04;93952.28;;;18.11;28.11
4469;BME280;2247;42.666;23.292;2024-03-23T12:17:32;93948.72;;;18.19;27.89
4469;BME280;2247;42.666;23.292;2024-03-23T12:20:00;93933.59;;;18.11;28.15
4469;BME280;2247;42.666;23.292;2024-03-23T12:22:28;93944.88;;;18.29;26.80
4469;BME280;2247;42.666;23.292;2024-03-23T12:24:55;93930.97;;;18.23;28.70
4469;BME280;2247;42.666;23.292;2024-03-23T12:27:22;93950.78;;;18.34;24.50
4469;BME280;2247;42.666;23.292;2024-03-23T12:29:48;93929.88;;;18.36;24.99
4469;BME280;2247;42.666;23.292;2024-03-23T12:32:15;93928.09;;;18.40;23.64
4469;BME280;2247;42.666;23.292;2024-03-23T12:34:43;93926.53;;;18.39;23.81
4469;BME280;2247;42.666;23.292;2024-03-23T12:37:10;93916.47;;;18.45;23.58
4469;BME280;2247;42.666;23.292;2024-03-23T12:39:36;93918.03;;;18.46;24.14
4469;BME280;2247;42.666;23.292;2024-03-23T12:42:03;93912.00;;;18.49;23.59
4469;BME280;2247;42.666;23.292;2024-03-23T12:44:29;93906.66;;;18.49;23.22
4469;BME280;2247;42.666;23.292;2024-03-23T12:46:56;93905.88;;;18.48;22.54
4469;BME280;2247;42.666;23.292;2024-03-23T12:49:22;93900.69;;;18.52;23.62
4469;BME280;2247;42.666;23.292;2024-03-23T12:51:55;93865.84;;;18.24;23.80
4469;BME280;2247;42.666;23.292;2024-03-23T12:54:22;93899.81;;;18.60;24.56
4469;BME280;2247;42.666;23.292;2024-03-23T12:56:49;93879.47;;;18.56;23.71
4469;BME280;2247;42.666;23.292;2024-03-23T12:59:15;93874.13;;;18.68;23.20
4469;BME280;2247;42.666;23.292;2024-03-23T13:01:45;93878.59;;;18.64;22.60
4469;BME280;2247;42.666;23.292;2024-03-23T13:04:11;93878.59;;;18.64;23.43
4469;BME280;2247;42.666;23.292;2024-03-23T13:06:38;93873.25;;;18.76;23.23
4469;BME280;2247;42.666;23.292;2024-03-23T13:09:05;93867.91;;;18.76;22.87
4469;BME280;2247;42.666;23.292;2024-03-23T13:11:32;93858.78;;;18.77;22.50
4469;BME280;2247;42.666;23.292;2024-03-23T13:13:59;93855.66;;;18.75;22.44
4469;BME280;2247;42.666;23.292;2024-03-23T13:16:25;93843.09;;;18.75;23.19
4469;BME280;2247;42.666;23.292;2024-03-23T13:18:52;93852.34;;;18.78;23.01
4469;BME280;2247;42.666;23.292;2024-03-23T13:21:18;93861.91;;;18.79;22.41
4469;BME280;2247;42.666;23.292;2024-03-23T13:23:47;93853.44;;;18.77;23.04
4469;BME280;2247;42.666;23.292;2024-03-23T13:26:14;93848.78;;;18.86;22.61
4469;BME280;2247;42.666;23.292;2024-03-23T13:28:41;93851.44;;;18.86;22.18
4469;BME280;2247;42.666;23.292;2024-03-23T13:31:07;93853.00;;;18.87;22.02
4469;BME280;2247;42.666;23.292;2024-03-23T13:33:34;93840.97;;;18.93;22.47
4469;BME280;2247;42.666;23.292;2024-03-23T13:36:00;93846.94;;;19.02;23.27
4469;BME280;2247;42.666;23.292;2024-03-23T13:38:28;93840.69;;;19.10;22.71
4469;BME280;2247;42.666;23.292;2024-03-23T13:40:55;93840.47;;;19.15;24.82
4469;BME280;2247;42.666;23.292;2024-03-23T13:43:24;93840.44;;;19.27;23.02
4469;BME280;2247;42.666;23.292;2024-03-23T13:45:53;93849.53;;;19.39;23.63
4469;BME280;2247;42.666;23.292;2024-03-23T13:48:20;93830.50;;;19.40;23.18
4469;BME280;2247;42.666;23.292;2024-03-23T13:50:56;93825.94;;;19.41;23.05
4469;BME280;2247;42.666;23.292;2024-03-23T13:53:22;93827.91;;;19.44;24.22
4469;BME280;2247;42.666;23.292;2024-03-23T13:55:50;93822.72;;;19.47;23.78
4469;BME280;2247;42.666;23.292;2024-03-23T13:58:16;93783.50;;;19.11;24.01
4469;BME280;2247;42.666;23.292;2024-03-23T14:00:45;93806.78;;;19.39;25.12
4469;BME280;2247;42.666;23.292;2024-03-23T14:03:11;93816.88;;;19.57;24.87
4469;BME280;2247;42.666;23.292;2024-03-23T14:05:39;93777.59;;;19.46;23.38